Pagina principale
METAR-TAF:

METAR-TAF

Aeroporti :

Hammamet, Tunisia

Aeroporto di Enfida-Hammamet

latitudine: 36-04-34N, longitudine: 10-26-19E, altezza: 6 m

Osservazione

Il bollettino è stato emesso 32 minuti fa, alle 20:00 UTC
Vento 15 kt da nord-ovest
Temperature 28°C
Umidità 45%
Pressione 1010 hPa
Visibilità 10 km o più
nessuna nube inferiore a 1500 m e nessun cumulonembo

METAR: DTNH 252000Z AUTO 32015KT CAVOK 28/15 Q1010

Ora: 21:32 (20:32 UTC)

Previsione

Il bollettino è stato emesso 3 ore e 12 minuti fa, alle 17:20 UTC
Previsione valida dal 25 alle 18 UTC al 26 alle 18 UTC
Vento 12 kt da nord-ovest
Visibilità 10 km o più
nessuna nube inferiore a 1500 m e nessun cumulonembo
Probabilità 40% :
Temporaneamente
dal 25 alle 20 UTC al 25 alle 23 UTC
Vento 35 kt da direzioni variabili
Visibilità: 3000 m
Poco nuvoloso ad un'altezza di 2600 ft, Cumulonembo.
temporale, pioggia

TAF: DTNH 251720Z 2518/2618 31012KT CAVOK PROB40 TEMPO 2520/2523 VRB35KT 3000 TSRA FEW026CB

Osservazioni e previsioni meteorologiche di più di 4000 aeroporti (messaggi METAR e TAF).

Le stazioni disponibili sono rappresentate dai dischi gialli e rossi sulla carta.

Puntare il mouse per vedere il nome della stazione.

Clicca sopra per visualizzare le osservazioni e previsioni meteorologiche.

Per cambiare la mappa : fare clic sui pulsanti verdi con una croce nera per ingrandire, il pulsante verde con un trattino per diminuire, o sulla freccia verde per le mappe adiacenti.


METAR-TAF: